createdAt,value
2024-02-29T00:02:47.593Z,100.00
2024-02-29T00:07:53.445Z,99.95
2024-02-29T00:13:17.221Z,99.97
2024-02-29T00:18:39.405Z,100.00
2024-02-29T00:24:03.301Z,100.00
2024-02-29T00:29:26.765Z,100.00
2024-02-29T00:34:56.075Z,100.00
2024-02-29T00:40:20.161Z,100.00
2024-02-29T00:45:56.677Z,100.00
2024-02-29T00:51:05.765Z,99.94
2024-02-29T00:56:24.177Z,99.68
2024-02-29T01:01:33.545Z,99.90
2024-02-29T01:06:50.750Z,99.61
2024-02-29T01:12:15.912Z,99.85
2024-02-29T01:17:49.953Z,99.91
2024-02-29T01:23:16.364Z,99.52
2024-02-29T01:29:00.274Z,99.45
2024-02-29T01:34:06.764Z,98.91
2024-02-29T01:39:12.529Z,98.86
2024-02-29T01:44:28.799Z,98.76
2024-02-29T01:50:05.973Z,98.77
2024-02-29T01:55:20.302Z,99.03
2024-02-29T02:00:23.588Z,99.05
2024-02-29T02:05:36.270Z,99.13
2024-02-29T02:10:48.694Z,98.87
2024-02-29T02:15:54.795Z,99.08
2024-02-29T02:21:09.164Z,98.89
2024-02-29T02:26:24.185Z,98.74
2024-02-29T02:31:28.016Z,98.45
2024-02-29T02:36:31.480Z,98.47
2024-02-29T02:41:55.363Z,98.39
2024-02-29T02:47:01.947Z,98.38
2024-02-29T02:52:05.711Z,98.60
2024-02-29T02:57:17.911Z,98.62
2024-02-29T03:02:41.828Z,97.97
2024-02-29T03:08:16.117Z,98.11
2024-02-29T03:13:29.077Z,98.15
2024-02-29T03:18:35.521Z,98.21
2024-02-29T03:24:06.879Z,98.14
2024-02-29T03:29:23.423Z,98.05
2024-02-29T03:34:29.147Z,97.88
2024-02-29T03:39:45.728Z,97.79
2024-02-29T03:45:09.545Z,98.16
2024-02-29T03:50:20.640Z,97.89
2024-02-29T03:55:45.012Z,98.06
2024-02-29T04:00:53.524Z,98.17
2024-02-29T04:06:57.750Z,97.90
2024-02-29T04:12:44.782Z,98.24
2024-02-29T04:18:02.722Z,97.90
2024-02-29T04:23:17.692Z,98.00
2024-02-29T04:28:41.246Z,98.07
2024-02-29T04:34:19.287Z,98.18
2024-02-29T04:39:46.859Z,97.97
2024-02-29T04:45:01.968Z,98.14
2024-02-29T04:50:09.353Z,98.28
2024-02-29T04:55:33.036Z,98.00
2024-02-29T05:00:59.984Z,98.27
2024-02-29T05:06:15.133Z,98.26
2024-02-29T05:11:41.037Z,98.19
2024-02-29T05:16:54.663Z,97.98
2024-02-29T05:22:03.756Z,97.65
2024-02-29T05:27:07.508Z,97.82
2024-02-29T05:32:11.100Z,97.82
2024-02-29T05:37:17.904Z,97.79
2024-02-29T05:42:23.750Z,97.55
2024-02-29T05:47:27.494Z,97.48
2024-02-29T05:52:33.556Z,97.61
2024-02-29T05:57:37.233Z,97.82
2024-02-29T06:02:52.109Z,97.69
2024-02-29T06:08:23.408Z,97.82
2024-02-29T06:13:28.578Z,97.41
2024-02-29T06:19:12.674Z,97.78
2024-02-29T06:24:58.135Z,98.02
2024-02-29T06:30:05.768Z,97.49
2024-02-29T06:35:24.181Z,97.70
2024-02-29T06:40:37.481Z,97.62
2024-02-29T06:45:56.919Z,97.60
2024-02-29T06:51:00.686Z,97.91
2024-02-29T06:56:05.584Z,97.62
2024-02-29T07:01:09.325Z,97.52
2024-02-29T07:06:12.996Z,97.28
2024-02-29T07:11:16.734Z,96.79
2024-02-29T07:16:52.004Z,96.80
2024-02-29T07:21:55.660Z,96.96
2024-02-29T07:27:22.529Z,96.62
2024-02-29T07:32:26.088Z,96.78
2024-02-29T07:37:41.116Z,96.83
2024-02-29T07:42:44.822Z,95.48
2024-02-29T07:48:17.852Z,96.08
2024-02-29T07:53:21.478Z,95.79
2024-02-29T07:58:28.318Z,96.25
2024-02-29T08:03:47.481Z,95.14
2024-02-29T08:08:53.918Z,95.57
2024-02-29T08:13:57.709Z,95.59
2024-02-29T08:19:08.632Z,96.25
2024-02-29T08:24:12.330Z,95.68
2024-02-29T08:29:18.013Z,95.79
2024-02-29T08:34:21.594Z,95.72
2024-02-29T08:39:35.278Z,95.05
2024-02-29T08:44:43.953Z,95.36
2024-02-29T08:49:47.419Z,94.50
2024-02-29T08:54:51.180Z,94.60
2024-02-29T09:00:00.901Z,94.71
2024-02-29T09:05:26.710Z,94.96
2024-02-29T09:10:31.114Z,93.62
2024-02-29T09:15:35.099Z,94.60
2024-02-29T09:20:38.574Z,94.75
2024-02-29T09:25:45.535Z,94.67
2024-02-29T09:30:49.165Z,94.19
2024-02-29T09:35:59.405Z,94.47
2024-02-29T09:41:13.207Z,93.20
2024-02-29T09:46:29.181Z,92.40
2024-02-29T09:51:33.547Z,92.36
2024-02-29T09:56:36.884Z,92.84
2024-02-29T10:01:41.786Z,91.16
2024-02-29T10:06:46.056Z,90.96
2024-02-29T10:11:50.035Z,91.25
2024-02-29T10:16:54.746Z,90.89
2024-02-29T10:21:58.987Z,91.22
2024-02-29T10:27:03.763Z,90.98
2024-02-29T10:32:07.507Z,89.88
2024-02-29T10:37:11.195Z,90.07
2024-02-29T10:42:18.466Z,90.70
2024-02-29T10:47:32.394Z,88.65
2024-02-29T10:52:46.069Z,88.15
2024-02-29T10:58:18.467Z,89.11
2024-02-29T11:03:23.192Z,87.75
2024-02-29T11:08:27.182Z,86.79
2024-02-29T11:13:30.833Z,88.35
2024-02-29T11:18:37.019Z,86.76
2024-02-29T11:23:42.305Z,86.75
2024-02-29T11:28:50.337Z,87.01
2024-02-29T11:33:53.875Z,85.86
2024-02-29T11:38:57.240Z,86.96
2024-02-29T11:44:00.538Z,87.54
2024-02-29T11:49:04.013Z,87.27
2024-02-29T11:54:07.619Z,86.94
2024-02-29T11:59:12.423Z,86.87
2024-02-29T12:04:16.907Z,86.46
2024-02-29T12:09:20.534Z,86.31
2024-02-29T12:14:24.118Z,84.12
2024-02-29T12:19:27.502Z,78.23
2024-02-29T12:24:34.824Z,77.83
2024-02-29T12:29:38.472Z,80.21
2024-02-29T12:34:44.795Z,81.93
2024-02-29T12:39:57.891Z,82.92
2024-02-29T12:45:01.522Z,83.34
2024-02-29T12:50:09.176Z,83.44
2024-02-29T12:55:13.952Z,82.57
2024-02-29T13:00:26.759Z,82.50
2024-02-29T13:05:30.261Z,80.27
2024-02-29T13:10:33.867Z,81.77
2024-02-29T13:15:37.329Z,82.06
2024-02-29T13:20:41.520Z,81.67
2024-02-29T13:25:44.899Z,81.38
2024-02-29T13:30:50.023Z,81.28
2024-02-29T13:35:53.546Z,80.11
2024-02-29T13:40:56.873Z,80.20
2024-02-29T13:46:00.472Z,80.54
2024-02-29T13:51:03.942Z,79.72
2024-02-29T13:56:07.369Z,79.53
2024-02-29T14:01:11.295Z,78.95
2024-02-29T14:06:14.979Z,79.57
2024-02-29T14:11:18.440Z,79.28
2024-02-29T14:16:22.461Z,79.97
2024-02-29T14:21:25.868Z,78.99
2024-02-29T14:26:29.612Z,79.43
2024-02-29T14:31:32.963Z,79.37
2024-02-29T14:36:38.619Z,79.89
2024-02-29T14:41:45.281Z,79.85
2024-02-29T14:46:49.566Z,80.05
2024-02-29T14:51:57.400Z,78.75
2024-02-29T14:57:01.871Z,78.91
2024-02-29T15:02:05.802Z,79.41
2024-02-29T15:07:10.391Z,79.39
2024-02-29T15:12:14.013Z,78.76
2024-02-29T15:17:17.468Z,79.25
2024-02-29T15:22:21.787Z,78.84
2024-02-29T15:27:25.281Z,78.52
2024-02-29T15:32:34.682Z,78.50
2024-02-29T15:37:38.579Z,79.06
2024-02-29T15:42:42.410Z,79.20
2024-02-29T15:47:46.939Z,79.31
2024-02-29T15:52:50.872Z,79.50
2024-02-29T15:57:54.917Z,79.25
2024-02-29T16:02:58.415Z,79.59
2024-02-29T16:08:03.065Z,79.63
2024-02-29T16:13:13.987Z,79.47
2024-02-29T16:18:27.848Z,79.74
2024-02-29T16:23:40.700Z,79.75
2024-02-29T16:28:55.635Z,79.92
2024-02-29T16:34:14.495Z,79.96
2024-02-29T16:39:18.329Z,80.15
2024-02-29T16:44:24.716Z,80.39
2024-02-29T16:49:41.863Z,80.88
2024-02-29T16:54:45.260Z,80.92
2024-02-29T17:00:11.423Z,81.12
2024-02-29T17:05:15.182Z,81.34
2024-02-29T17:10:35.060Z,81.70
2024-02-29T17:15:50.536Z,82.03
2024-02-29T17:20:56.875Z,82.41
2024-02-29T17:26:21.442Z,82.86
2024-02-29T17:31:34.245Z,82.73
2024-02-29T17:36:37.713Z,82.99
2024-02-29T17:41:44.457Z,83.16
2024-02-29T17:46:47.862Z,83.84
2024-02-29T17:51:54.096Z,84.44
2024-02-29T17:56:57.707Z,84.12
2024-02-29T18:02:01.398Z,84.30
2024-02-29T18:07:05.501Z,84.68
2024-02-29T18:12:09.310Z,84.48
2024-02-29T18:17:12.638Z,84.85
2024-02-29T18:22:16.431Z,85.07
2024-02-29T18:27:23.084Z,84.65
2024-02-29T18:32:29.359Z,84.63
2024-02-29T18:37:34.650Z,85.00
2024-02-29T18:42:41.320Z,84.95
2024-02-29T18:47:47.655Z,84.73
2024-02-29T18:52:51.504Z,85.05
2024-02-29T18:57:54.926Z,84.86
2024-02-29T19:02:58.421Z,84.99
2024-02-29T19:08:06.470Z,85.14
2024-02-29T19:13:12.438Z,84.90
2024-02-29T19:18:19.870Z,85.12
2024-02-29T19:23:23.391Z,85.07
2024-02-29T19:28:28.976Z,85.04
2024-02-29T19:33:32.811Z,85.10
2024-02-29T19:38:36.193Z,84.95
2024-02-29T19:43:39.632Z,85.19
2024-02-29T19:48:50.657Z,85.24
2024-02-29T19:53:54.346Z,85.44
2024-02-29T19:58:57.830Z,85.60
2024-02-29T20:04:01.630Z,85.76
2024-02-29T20:09:09.500Z,85.88
2024-02-29T20:14:13.082Z,85.92
2024-02-29T20:19:16.557Z,85.96
2024-02-29T20:24:20.140Z,86.28
2024-02-29T20:29:23.791Z,86.04
2024-02-29T20:34:27.539Z,86.67
2024-02-29T20:39:34.295Z,87.30
2024-02-29T20:44:38.322Z,87.40
2024-02-29T20:49:41.829Z,87.86
2024-02-29T20:54:48.005Z,87.81
2024-02-29T20:59:52.080Z,87.92
2024-02-29T21:05:05.338Z,88.21
2024-02-29T21:10:10.086Z,88.20
2024-02-29T21:15:17.091Z,88.47
2024-02-29T21:20:27.677Z,88.31
2024-02-29T21:25:31.437Z,88.62
2024-02-29T21:30:35.168Z,89.12
2024-02-29T21:35:41.506Z,89.20
2024-02-29T21:40:44.950Z,89.04
2024-02-29T21:45:48.504Z,88.94
2024-02-29T21:50:55.245Z,89.40
2024-02-29T21:55:58.897Z,89.48
2024-02-29T22:01:12.137Z,89.61
2024-02-29T22:06:39.092Z,89.95
2024-02-29T22:11:47.677Z,89.95
2024-02-29T22:16:51.528Z,90.17
2024-02-29T22:21:55.265Z,89.96
2024-02-29T22:26:59.127Z,90.12
2024-02-29T22:32:08.437Z,90.06
2024-02-29T22:37:16.035Z,90.01
2024-02-29T22:42:20.552Z,89.99
2024-02-29T22:47:26.728Z,90.37
2024-02-29T22:52:30.331Z,90.51
2024-02-29T22:57:41.424Z,91.01
2024-02-29T23:02:44.993Z,91.49
2024-02-29T23:07:48.545Z,91.56
2024-02-29T23:12:51.935Z,91.21
2024-02-29T23:17:57.210Z,91.39
2024-02-29T23:23:02.026Z,91.25
2024-02-29T23:28:14.467Z,91.74
2024-02-29T23:33:17.891Z,91.46
2024-02-29T23:38:21.593Z,91.15
2024-02-29T23:43:25.069Z,91.08
2024-02-29T23:48:28.642Z,91.36
2024-02-29T23:53:32.037Z,91.21
2024-02-29T23:58:37.265Z,91.39
